sensor_id;sensor_type;location;lat;lon;timestamp;pressure;altitude;pressure_sealevel;temperature;humidity
2401;BME280;1211;43.200;27.914;2023-03-31T00:00:32;101365.78;;;6.71;nan
2401;BME280;1211;43.200;27.914;2023-03-31T00:03:00;101350.16;;;6.37;nan
2401;BME280;1211;43.200;27.914;2023-03-31T00:05:27;101351.75;;;6.43;nan
2401;BME280;1211;43.200;27.914;2023-03-31T00:07:54;101346.31;;;6.38;nan
2401;BME280;1211;43.200;27.914;2023-03-31T00:10:25;101352.19;;;6.16;nan
2401;BME280;1211;43.200;27.914;2023-03-31T00:12:52;101344.47;;;6.62;nan
2401;BME280;1211;43.200;27.914;2023-03-31T00:15:18;101342.59;;;6.58;nan
2401;BME280;1211;43.200;27.914;2023-03-31T00:17:45;101335.88;;;6.74;nan
2401;BME280;1211;43.200;27.914;2023-03-31T00:20:13;101328.44;;;6.80;nan
2401;BME280;1211;43.200;27.914;2023-03-31T00:22:41;101327.63;;;6.50;nan
2401;BME280;1211;43.200;27.914;2023-03-31T00:25:10;101326.41;;;6.33;nan
2401;BME280;1211;43.200;27.914;2023-03-31T00:27:37;101316.88;;;6.59;nan
2401;BME280;1211;43.200;27.914;2023-03-31T00:30:08;101331.47;;;6.10;nan
2401;BME280;1211;43.200;27.914;2023-03-31T00:32:35;101323.91;;;6.36;nan
2401;BME280;1211;43.200;27.914;2023-03-31T00:35:02;101319.00;;;6.33;nan
2401;BME280;1211;43.200;27.914;2023-03-31T00:37:31;101319.97;;;6.13;nan
2401;BME280;1211;43.200;27.914;2023-03-31T00:39:58;101316.78;;;6.35;nan
2401;BME280;1211;43.200;27.914;2023-03-31T00:42:24;101308.13;;;6.23;nan
2401;BME280;1211;43.200;27.914;2023-03-31T00:47:49;101298.50;;;5.92;nan
2401;BME280;1211;43.200;27.914;2023-03-31T00:50:19;101303.22;;;6.20;nan
2401;BME280;1211;43.200;27.914;2023-03-31T00:52:48;101302.97;;;6.16;nan
2401;BME280;1211;43.200;27.914;2023-03-31T00:55:17;101297.56;;;6.45;nan
2401;BME280;1211;43.200;27.914;2023-03-31T00:57:46;101302.19;;;6.16;nan
2401;BME280;1211;43.200;27.914;2023-03-31T01:00:13;101297.03;;;6.09;nan
2401;BME280;1211;43.200;27.914;2023-03-31T01:02:40;101297.84;;;6.10;nan
2401;BME280;1211;43.200;27.914;2023-03-31T01:05:16;101292.72;;;6.37;nan
2401;BME280;1211;43.200;27.914;2023-03-31T01:07:44;101279.69;;;6.24;nan
2401;BME280;1211;43.200;27.914;2023-03-31T01:10:15;101271.31;;;6.44;nan
2401;BME280;1211;43.200;27.914;2023-03-31T01:12:42;101271.75;;;6.22;nan
2401;BME280;1211;43.200;27.914;2023-03-31T01:15:11;101278.75;;;6.39;nan
2401;BME280;1211;43.200;27.914;2023-03-31T01:17:37;101264.66;;;5.77;nan
2401;BME280;1211;43.200;27.914;2023-03-31T01:20:09;101276.22;;;6.13;nan
2401;BME280;1211;43.200;27.914;2023-03-31T01:22:45;101262.50;;;5.74;nan
2401;BME280;1211;43.200;27.914;2023-03-31T01:28:26;101257.59;;;6.15;nan
2401;BME280;1211;43.200;27.914;2023-03-31T01:33:58;101246.34;;;6.17;nan
2401;BME280;1211;43.200;27.914;2023-03-31T01:36:39;101248.94;;;6.37;nan
2401;BME280;1211;43.200;27.914;2023-03-31T01:39:23;101246.03;;;6.24;nan
2401;BME280;1211;43.200;27.914;2023-03-31T01:41:57;101239.56;;;6.14;nan
2401;BME280;1211;43.200;27.914;2023-03-31T01:44:30;101245.84;;;5.66;nan
2401;BME280;1211;43.200;27.914;2023-03-31T01:46:59;101237.19;;;6.03;nan
2401;BME280;1211;43.200;27.914;2023-03-31T01:49:28;101230.75;;;5.78;nan
2401;BME280;1211;43.200;27.914;2023-03-31T01:52:02;101230.16;;;5.87;nan
2401;BME280;1211;43.200;27.914;2023-03-31T01:54:31;101223.25;;;5.99;nan
2401;BME280;1211;43.200;27.914;2023-03-31T01:57:06;101222.13;;;5.61;nan
2401;BME280;1211;43.200;27.914;2023-03-31T01:59:37;101215.63;;;5.96;nan
2401;BME280;1211;43.200;27.914;2023-03-31T02:02:05;101213.06;;;6.10;nan
2401;BME280;1211;43.200;27.914;2023-03-31T02:04:35;101210.34;;;6.05;nan
2401;BME280;1211;43.200;27.914;2023-03-31T02:07:06;101201.44;;;5.94;nan
2401;BME280;1211;43.200;27.914;2023-03-31T02:09:36;101203.56;;;6.02;nan
2401;BME280;1211;43.200;27.914;2023-03-31T02:12:06;101197.97;;;5.78;nan
2401;BME280;1211;43.200;27.914;2023-03-31T02:14:34;101192.84;;;6.06;nan
2401;BME280;1211;43.200;27.914;2023-03-31T02:17:03;101193.09;;;5.70;nan
2401;BME280;1211;43.200;27.914;2023-03-31T02:19:33;101187.00;;;5.84;nan
2401;BME280;1211;43.200;27.914;2023-03-31T02:22:00;101184.22;;;5.94;nan
2401;BME280;1211;43.200;27.914;2023-03-31T02:24:28;101181.50;;;5.89;nan
2401;BME280;1211;43.200;27.914;2023-03-31T02:26:58;101180.47;;;5.79;nan
2401;BME280;1211;43.200;27.914;2023-03-31T02:29:30;101172.78;;;5.87;nan
2401;BME280;1211;43.200;27.914;2023-03-31T02:31:58;101168.06;;;5.97;nan
2401;BME280;1211;43.200;27.914;2023-03-31T02:34:26;101157.56;;;6.09;nan
2401;BME280;1211;43.200;27.914;2023-03-31T02:36:52;101156.22;;;6.07;nan
2401;BME280;1211;43.200;27.914;2023-03-31T02:39:20;101157.47;;;5.91;nan
2401;BME280;1211;43.200;27.914;2023-03-31T02:41:49;101154.38;;;5.63;nan
2401;BME280;1211;43.200;27.914;2023-03-31T02:44:16;101151.38;;;5.99;nan
2401;BME280;1211;43.200;27.914;2023-03-31T02:46:45;101147.91;;;6.17;nan
2401;BME280;1211;43.200;27.914;2023-03-31T02:49:12;101152.53;;;5.88;nan
2401;BME280;1211;43.200;27.914;2023-03-31T02:57:19;101146.16;;;6.31;nan
2401;BME280;1211;43.200;27.914;2023-03-31T02:59:56;101144.50;;;6.30;nan
2401;BME280;1211;43.200;27.914;2023-03-31T03:02:33;101135.72;;;5.70;nan
2401;BME280;1211;43.200;27.914;2023-03-31T03:05:07;101139.28;;;6.05;nan
2401;BME280;1211;43.200;27.914;2023-03-31T03:07:40;101138.44;;;5.75;nan
2401;BME280;1211;43.200;27.914;2023-03-31T03:10:10;101134.38;;;5.68;nan
2401;BME280;1211;43.200;27.914;2023-03-31T03:12:41;101132.31;;;5.89;nan
2401;BME280;1211;43.200;27.914;2023-03-31T03:15:11;101132.03;;;6.19;nan
2401;BME280;1211;43.200;27.914;2023-03-31T03:17:41;101128.38;;;6.00;nan
2401;BME280;1211;43.200;27.914;2023-03-31T03:20:09;101122.78;;;6.15;nan
2401;BME280;1211;43.200;27.914;2023-03-31T03:22:37;101124.44;;;6.16;nan
2401;BME280;1211;43.200;27.914;2023-03-31T03:25:05;101113.78;;;6.14;nan
2401;BME280;1211;43.200;27.914;2023-03-31T03:27:33;101102.63;;;6.06;nan
2401;BME280;1211;43.200;27.914;2023-03-31T03:30:00;101103.06;;;6.18;nan
2401;BME280;1211;43.200;27.914;2023-03-31T03:32:29;101102.03;;;6.14;nan
2401;BME280;1211;43.200;27.914;2023-03-31T03:34:57;101109.13;;;6.15;nan
2401;BME280;1211;43.200;27.914;2023-03-31T03:37:23;101101.84;;;6.29;nan
2401;BME280;1211;43.200;27.914;2023-03-31T03:39:50;101109.13;;;6.15;nan
2401;BME280;1211;43.200;27.914;2023-03-31T03:42:16;101113.84;;;5.75;nan
2401;BME280;1211;43.200;27.914;2023-03-31T03:44:43;101111.88;;;5.76;nan
2401;BME280;1211;43.200;27.914;2023-03-31T03:47:10;101108.88;;;5.77;nan
2401;BME280;1211;43.200;27.914;2023-03-31T03:49:36;101118.31;;;5.61;nan
2401;BME280;1211;43.200;27.914;2023-03-31T03:52:05;101121.09;;;5.90;nan
2401;BME280;1211;43.200;27.914;2023-03-31T03:54:31;101111.91;;;6.10;nan
2401;BME280;1211;43.200;27.914;2023-03-31T03:56:58;101108.66;;;6.08;nan
2401;BME280;1211;43.200;27.914;2023-03-31T03:59:25;101101.44;;;6.41;nan
2401;BME280;1211;43.200;27.914;2023-03-31T04:01:51;101103.56;;;5.96;nan
2401;BME280;1211;43.200;27.914;2023-03-31T04:04:18;101101.22;;;5.79;nan
2401;BME280;1211;43.200;27.914;2023-03-31T04:06:45;101097.56;;;5.94;nan
2401;BME280;1211;43.200;27.914;2023-03-31T04:09:13;101086.88;;;5.98;nan
2401;BME280;1211;43.200;27.914;2023-03-31T04:11:39;101084.59;;;6.05;nan
2401;BME280;1211;43.200;27.914;2023-03-31T04:14:06;101084.97;;;6.22;nan
2401;BME280;1211;43.200;27.914;2023-03-31T04:16:32;101085.78;;;6.46;nan
2401;BME280;1211;43.200;27.914;2023-03-31T04:18:59;101085.56;;;6.85;nan
2401;BME280;1211;43.200;27.914;2023-03-31T04:21:29;101082.72;;;7.33;nan
2401;BME280;1211;43.200;27.914;2023-03-31T04:23:59;101080.97;;;7.56;nan
2401;BME280;1211;43.200;27.914;2023-03-31T04:26:30;101089.72;;;7.58;nan
2401;BME280;1211;43.200;27.914;2023-03-31T04:29:03;101089.47;;;8.05;nan
2401;BME280;1211;43.200;27.914;2023-03-31T04:31:30;101085.28;;;7.94;nan
2401;BME280;1211;43.200;27.914;2023-03-31T04:33:56;101069.06;;;8.25;nan
2401;BME280;1211;43.200;27.914;2023-03-31T04:36:26;101078.66;;;7.95;nan
2401;BME280;1211;43.200;27.914;2023-03-31T04:38:55;101065.41;;;8.29;nan
2401;BME280;1211;43.200;27.914;2023-03-31T04:41:22;101073.97;;;7.82;nan
2401;BME280;1211;43.200;27.914;2023-03-31T04:43:53;101073.50;;;8.07;nan
2401;BME280;1211;43.200;27.914;2023-03-31T04:46:20;101078.47;;;8.38;nan
2401;BME280;1211;43.200;27.914;2023-03-31T04:48:47;101060.84;;;8.66;nan
2401;BME280;1211;43.200;27.914;2023-03-31T04:51:13;101074.31;;;7.94;nan
2401;BME280;1211;43.200;27.914;2023-03-31T04:53:40;101075.41;;;7.61;nan
2401;BME280;1211;43.200;27.914;2023-03-31T04:56:07;101076.16;;;7.66;nan
2401;BME280;1211;43.200;27.914;2023-03-31T04:58:33;101071.50;;;8.26;nan
2401;BME280;1211;43.200;27.914;2023-03-31T05:01:02;101063.59;;;8.80;nan
2401;BME280;1211;43.200;27.914;2023-03-31T05:03:30;101057.22;;;9.42;nan
2401;BME280;1211;43.200;27.914;2023-03-31T05:05:57;101059.97;;;9.42;nan
2401;BME280;1211;43.200;27.914;2023-03-31T05:08:26;101044.03;;;9.53;nan
2401;BME280;1211;43.200;27.914;2023-03-31T05:10:53;101040.78;;;10.04;nan
2401;BME280;1211;43.200;27.914;2023-03-31T05:13:19;101034.44;;;10.04;nan
2401;BME280;1211;43.200;27.914;2023-03-31T05:15:46;101043.66;;;9.99;nan
2401;BME280;1211;43.200;27.914;2023-03-31T05:18:16;101038.03;;;10.35;nan
2401;BME280;1211;43.200;27.914;2023-03-31T05:20:43;101032.56;;;9.82;nan
2401;BME280;1211;43.200;27.914;2023-03-31T05:23:10;101022.28;;;10.27;nan
2401;BME280;1211;43.200;27.914;2023-03-31T05:25:37;101014.75;;;10.10;nan
2401;BME280;1211;43.200;27.914;2023-03-31T05:28:03;101020.03;;;10.38;nan
2401;BME280;1211;43.200;27.914;2023-03-31T05:30:30;101019.72;;;10.00;nan
2401;BME280;1211;43.200;27.914;2023-03-31T05:32:57;101020.03;;;10.29;nan
2401;BME280;1211;43.200;27.914;2023-03-31T05:35:25;101022.44;;;10.22;nan
2401;BME280;1211;43.200;27.914;2023-03-31T05:37:52;101010.91;;;9.58;nan
2401;BME280;1211;43.200;27.914;2023-03-31T05:40:18;101007.53;;;9.39;nan
2401;BME280;1211;43.200;27.914;2023-03-31T05:42:45;101017.72;;;9.91;nan
2401;BME280;1211;43.200;27.914;2023-03-31T05:45:12;101007.06;;;9.90;nan
2401;BME280;1211;43.200;27.914;2023-03-31T05:47:38;101009.94;;;9.63;nan
2401;BME280;1211;43.200;27.914;2023-03-31T05:50:05;101003.41;;;9.72;nan
2401;BME280;1211;43.200;27.914;2023-03-31T05:52:34;101012.13;;;10.05;nan
2401;BME280;1211;43.200;27.914;2023-03-31T05:55:02;101006.78;;;10.48;nan
2401;BME280;1211;43.200;27.914;2023-03-31T05:57:28;101012.53;;;11.29;nan
2401;BME280;1211;43.200;27.914;2023-03-31T05:59:55;101017.75;;;10.96;nan
2401;BME280;1211;43.200;27.914;2023-03-31T06:02:22;101016.09;;;10.95;nan
2401;BME280;1211;43.200;27.914;2023-03-31T06:04:49;101012.22;;;10.88;nan
2401;BME280;1211;43.200;27.914;2023-03-31T06:07:16;100999.72;;;10.90;nan
2401;BME280;1211;43.200;27.914;2023-03-31T06:09:45;101006.41;;;11.15;nan
2401;BME280;1211;43.200;27.914;2023-03-31T06:12:12;101003.88;;;10.45;nan
2401;BME280;1211;43.200;27.914;2023-03-31T06:14:40;100997.28;;;11.23;nan
2401;BME280;1211;43.200;27.914;2023-03-31T06:17:06;100997.97;;;11.20;nan
2401;BME280;1211;43.200;27.914;2023-03-31T06:19:33;101005.22;;;11.59;nan
2401;BME280;1211;43.200;27.914;2023-03-31T06:22:00;100994.88;;;12.41;nan
2401;BME280;1211;43.200;27.914;2023-03-31T06:24:26;100995.63;;;12.50;nan
2401;BME280;1211;43.200;27.914;2023-03-31T06:26:54;100995.16;;;12.18;nan
2401;BME280;1211;43.200;27.914;2023-03-31T06:29:21;100993.69;;;11.74;nan
2401;BME280;1211;43.200;27.914;2023-03-31T06:31:48;100990.25;;;11.86;nan
2401;BME280;1211;43.200;27.914;2023-03-31T06:34:14;100990.06;;;11.91;nan
2401;BME280;1211;43.200;27.914;2023-03-31T06:36:41;100990.09;;;12.50;nan
2401;BME280;1211;43.200;27.914;2023-03-31T06:39:08;100989.81;;;12.72;nan
2401;BME280;1211;43.200;27.914;2023-03-31T06:41:34;100987.63;;;11.89;nan
2401;BME280;1211;43.200;27.914;2023-03-31T06:44:04;100988.81;;;11.80;nan
2401;BME280;1211;43.200;27.914;2023-03-31T06:46:30;100978.66;;;12.01;nan
2401;BME280;1211;43.200;27.914;2023-03-31T06:48:57;100979.53;;;12.22;nan
2401;BME280;1211;43.200;27.914;2023-03-31T06:51:24;100978.19;;;12.28;nan
2401;BME280;1211;43.200;27.914;2023-03-31T06:53:50;100986.97;;;12.60;nan
2401;BME280;1211;43.200;27.914;2023-03-31T06:56:17;100989.72;;;12.60;nan
2401;BME280;1211;43.200;27.914;2023-03-31T06:58:44;100989.41;;;12.32;nan
2401;BME280;1211;43.200;27.914;2023-03-31T07:01:12;100984.91;;;11.64;nan
2401;BME280;1211;43.200;27.914;2023-03-31T07:03:38;100986.06;;;11.80;nan
2401;BME280;1211;43.200;27.914;2023-03-31T07:06:05;100981.91;;;11.39;nan
2401;BME280;1211;43.200;27.914;2023-03-31T07:08:32;100988.72;;;11.25;nan
2401;BME280;1211;43.200;27.914;2023-03-31T07:10:59;100985.97;;;10.99;nan
2401;BME280;1211;43.200;27.914;2023-03-31T07:13:26;100985.25;;;11.53;nan
2401;BME280;1211;43.200;27.914;2023-03-31T07:15:53;100974.38;;;11.74;nan
2401;BME280;1211;43.200;27.914;2023-03-31T07:18:22;100975.75;;;12.27;nan
2401;BME280;1211;43.200;27.914;2023-03-31T07:20:50;100984.56;;;11.91;nan
2401;BME280;1211;43.200;27.914;2023-03-31T07:23:17;100966.75;;;12.38;nan
2401;BME280;1211;43.200;27.914;2023-03-31T07:25:45;100964.81;;;12.89;nan
2401;BME280;1211;43.200;27.914;2023-03-31T07:28:12;100966.84;;;13.22;nan
2401;BME280;1211;43.200;27.914;2023-03-31T07:30:38;100970.88;;;13.03;nan
2401;BME280;1211;43.200;27.914;2023-03-31T07:33:05;100960.22;;;13.14;nan
2401;BME280;1211;43.200;27.914;2023-03-31T07:35:33;100970.00;;;13.11;nan
2401;BME280;1211;43.200;27.914;2023-03-31T07:38:02;100964.06;;;13.22;nan
2401;BME280;1211;43.200;27.914;2023-03-31T07:40:29;100968.63;;;12.97;nan
2401;BME280;1211;43.200;27.914;2023-03-31T07:42:56;100972.16;;;12.35;nan
2401;BME280;1211;43.200;27.914;2023-03-31T07:45:23;100981.84;;;12.20;nan
2401;BME280;1211;43.200;27.914;2023-03-31T07:47:50;100968.63;;;12.55;nan
2401;BME280;1211;43.200;27.914;2023-03-31T07:50:17;100973.63;;;12.32;nan
2401;BME280;1211;43.200;27.914;2023-03-31T07:52:45;100972.19;;;12.56;nan
2401;BME280;1211;43.200;27.914;2023-03-31T07:55:12;100971.03;;;12.57;nan
2401;BME280;1211;43.200;27.914;2023-03-31T07:57:38;100968.44;;;12.81;nan
2401;BME280;1211;43.200;27.914;2023-03-31T08:00:06;100969.78;;;12.75;nan
2401;BME280;1211;43.200;27.914;2023-03-31T08:02:36;100958.47;;;13.30;nan
2401;BME280;1211;43.200;27.914;2023-03-31T08:05:03;100966.00;;;12.29;nan
2401;BME280;1211;43.200;27.914;2023-03-31T08:07:32;100950.91;;;12.98;nan
2401;BME280;1211;43.200;27.914;2023-03-31T08:10:01;100952.78;;;13.27;nan
2401;BME280;1211;43.200;27.914;2023-03-31T08:12:28;100953.06;;;12.92;nan
2401;BME280;1211;43.200;27.914;2023-03-31T08:14:55;100954.66;;;12.52;nan
2401;BME280;1211;43.200;27.914;2023-03-31T08:17:21;100965.31;;;12.62;nan
2401;BME280;1211;43.200;27.914;2023-03-31T08:19:48;100949.03;;;12.69;nan
2401;BME280;1211;43.200;27.914;2023-03-31T08:22:16;100944.34;;;13.02;nan
2401;BME280;1211;43.200;27.914;2023-03-31T08:24:42;100950.22;;;12.80;nan
2401;BME280;1211;43.200;27.914;2023-03-31T08:27:11;100936.31;;;13.09;nan
2401;BME280;1211;43.200;27.914;2023-03-31T08:29:38;100944.56;;;12.56;nan
2401;BME280;1211;43.200;27.914;2023-03-31T08:32:04;100935.13;;;12.36;nan
2401;BME280;1211;43.200;27.914;2023-03-31T08:34:31;100932.78;;;12.17;nan
2401;BME280;1211;43.200;27.914;2023-03-31T08:36:58;100936.06;;;12.40;nan
2401;BME280;1211;43.200;27.914;2023-03-31T08:39:24;100924.75;;;12.54;nan
2401;BME280;1211;43.200;27.914;2023-03-31T08:41:53;100931.13;;;11.95;nan
2401;BME280;1211;43.200;27.914;2023-03-31T08:44:25;100925.09;;;11.93;nan
2401;BME280;1211;43.200;27.914;2023-03-31T08:46:55;100924.97;;;12.19;nan
2401;BME280;1211;43.200;27.914;2023-03-31T08:49:23;100929.06;;;12.43;nan
2401;BME280;1211;43.200;27.914;2023-03-31T08:52:01;100916.59;;;12.07;nan
2401;BME280;1211;43.200;27.914;2023-03-31T08:54:31;100906.69;;;12.35;nan
2401;BME280;1211;43.200;27.914;2023-03-31T08:56:59;100907.31;;;12.12;nan
2401;BME280;1211;43.200;27.914;2023-03-31T08:59:28;100907.63;;;11.81;nan
2401;BME280;1211;43.200;27.914;2023-03-31T09:01:58;100913.25;;;12.22;nan
2401;BME280;1211;43.200;27.914;2023-03-31T09:04:31;100910.50;;;12.22;nan
2401;BME280;1211;43.200;27.914;2023-03-31T09:07:01;100904.63;;;12.03;nan
2401;BME280;1211;43.200;27.914;2023-03-31T09:09:32;100895.75;;;11.89;nan
2401;BME280;1211;43.200;27.914;2023-03-31T09:12:04;100896.88;;;11.88;nan
2401;BME280;1211;43.200;27.914;2023-03-31T09:14:34;100898.88;;;11.79;nan
2401;BME280;1211;43.200;27.914;2023-03-31T09:17:10;100893.22;;;12.05;nan
2401;BME280;1211;43.200;27.914;2023-03-31T09:19:38;100893.84;;;12.10;nan
2401;BME280;1211;43.200;27.914;2023-03-31T09:22:10;100894.28;;;12.42;nan
2401;BME280;1211;43.200;27.914;2023-03-31T09:24:42;100887.00;;;12.58;nan
2401;BME280;1211;43.200;27.914;2023-03-31T09:27:11;100890.22;;;13.01;nan
2401;BME280;1211;43.200;27.914;2023-03-31T09:29:40;100884.81;;;12.01;nan
2401;BME280;1211;43.200;27.914;2023-03-31T09:32:11;100885.25;;;12.32;nan
2401;BME280;1211;43.200;27.914;2023-03-31T09:34:39;100881.19;;;12.92;nan
2401;BME280;1211;43.200;27.914;2023-03-31T09:37:07;100871.44;;;12.74;nan
2401;BME280;1211;43.200;27.914;2023-03-31T09:39:34;100869.63;;;12.57;nan
2401;BME280;1211;43.200;27.914;2023-03-31T09:42:02;100864.25;;;12.61;nan
2401;BME280;1211;43.200;27.914;2023-03-31T09:44:30;100870.41;;;12.78;nan
2401;BME280;1211;43.200;27.914;2023-03-31T09:47:02;100868.28;;;12.43;nan
2401;BME280;1211;43.200;27.914;2023-03-31T09:49:32;100868.28;;;12.43;nan
2401;BME280;1211;43.200;27.914;2023-03-31T09:52:01;100854.63;;;12.79;nan
2401;BME280;1211;43.200;27.914;2023-03-31T09:54:31;100855.44;;;13.00;nan
2401;BME280;1211;43.200;27.914;2023-03-31T09:57:00;100851.38;;;12.65;nan
2401;BME280;1211;43.200;27.914;2023-03-31T09:59:29;100866.25;;;12.31;nan
2401;BME280;1211;43.200;27.914;2023-03-31T10:01:58;100851.25;;;12.41;nan
2401;BME280;1211;43.200;27.914;2023-03-31T10:04:29;100856.03;;;12.31;nan
2401;BME280;1211;43.200;27.914;2023-03-31T10:06:57;100855.16;;;12.93;nan
2401;BME280;1211;43.200;27.914;2023-03-31T10:09:25;100850.13;;;13.07;nan
2401;BME280;1211;43.200;27.914;2023-03-31T10:11:53;100850.44;;;13.27;nan
2401;BME280;1211;43.200;27.914;2023-03-31T10:14:23;100846.06;;;12.93;nan
2401;BME280;1211;43.200;27.914;2023-03-31T10:16:52;100848.06;;;12.71;nan
2401;BME280;1211;43.200;27.914;2023-03-31T10:19:20;100834.25;;;12.30;nan
2401;BME280;1211;43.200;27.914;2023-03-31T10:21:54;100835.66;;;12.57;nan
2401;BME280;1211;43.200;27.914;2023-03-31T10:24:21;100835.88;;;12.72;nan
2401;BME280;1211;43.200;27.914;2023-03-31T10:26:49;100827.06;;;12.37;nan
2401;BME280;1211;43.200;27.914;2023-03-31T10:29:19;100821.13;;;13.13;nan
2401;BME280;1211;43.200;27.914;2023-03-31T10:31:49;100818.06;;;13.27;nan
2401;BME280;1211;43.200;27.914;2023-03-31T10:34:17;100817.03;;;13.32;nan
2401;BME280;1211;43.200;27.914;2023-03-31T10:36:45;100809.59;;;13.11;nan
2401;BME280;1211;43.200;27.914;2023-03-31T10:39:14;100810.22;;;13.17;nan
2401;BME280;1211;43.200;27.914;2023-03-31T10:41:41;100801.72;;;13.58;nan
2401;BME280;1211;43.200;27.914;2023-03-31T10:44:29;100788.56;;;13.55;nan
2401;BME280;1211;43.200;27.914;2023-03-31T10:46:56;100792.94;;;13.93;nan
2401;BME280;1211;43.200;27.914;2023-03-31T10:49:28;100777.13;;;14.33;nan
2401;BME280;1211;43.200;27.914;2023-03-31T10:51:55;100788.13;;;14.58;nan
2401;BME280;1211;43.200;27.914;2023-03-31T10:54:24;100783.03;;;14.88;nan
2401;BME280;1211;43.200;27.914;2023-03-31T10:56:51;100777.81;;;14.70;nan
2401;BME280;1211;43.200;27.914;2023-03-31T10:59:21;100775.59;;;14.48;nan
2401;BME280;1211;43.200;27.914;2023-03-31T11:01:53;100763.91;;;15.45;nan
2401;BME280;1211;43.200;27.914;2023-03-31T11:07:12;100751.69;;;16.35;nan
2401;BME280;1211;43.200;27.914;2023-03-31T11:09:45;100739.53;;;16.63;nan
2401;BME280;1211;43.200;27.914;2023-03-31T11:12:17;100742.06;;;15.59;nan
2401;BME280;1211;43.200;27.914;2023-03-31T11:14:53;100738.25;;;16.02;nan
2401;BME280;1211;43.200;27.914;2023-03-31T11:17:23;100730.75;;;16.61;nan
2401;BME280;1211;43.200;27.914;2023-03-31T11:19:54;100732.19;;;16.74;nan
2401;BME280;1211;43.200;27.914;2023-03-31T11:22:24;100730.41;;;16.85;nan
2401;BME280;1211;43.200;27.914;2023-03-31T11:27:50;100731.66;;;17.10;nan
2401;BME280;1211;43.200;27.914;2023-03-31T11:30:37;100727.25;;;16.64;nan
2401;BME280;1211;43.200;27.914;2023-03-31T11:33:14;100726.91;;;15.92;nan
2401;BME280;1211;43.200;27.914;2023-03-31T11:35:47;100721.47;;;14.98;nan
2401;BME280;1211;43.200;27.914;2023-03-31T11:38:22;100724.97;;;14.79;nan
2401;BME280;1211;43.200;27.914;2023-03-31T11:40:57;100717.91;;;15.13;nan
2401;BME280;1211;43.200;27.914;2023-03-31T11:43:27;100726.88;;;14.91;nan
2401;BME280;1211;43.200;27.914;2023-03-31T11:45:57;100714.34;;;14.97;nan
2401;BME280;1211;43.200;27.914;2023-03-31T11:48:27;100713.56;;;14.53;nan
2401;BME280;1211;43.200;27.914;2023-03-31T11:50:57;100716.75;;;14.39;nan
2401;BME280;1211;43.200;27.914;2023-03-31T11:53:25;100706.03;;;13.97;nan
2401;BME280;1211;43.200;27.914;2023-03-31T11:55:53;100702.69;;;13.52;nan
2401;BME280;1211;43.200;27.914;2023-03-31T11:58:22;100697.53;;;13.78;nan
2401;BME280;1211;43.200;27.914;2023-03-31T12:00:55;100697.59;;;14.34;nan
2401;BME280;1211;43.200;27.914;2023-03-31T12:03:27;100682.69;;;14.11;nan
2401;BME280;1211;43.200;27.914;2023-03-31T12:05:57;100673.78;;;14.61;nan
2401;BME280;1211;43.200;27.914;2023-03-31T12:08:28;100675.41;;;14.62;nan
2401;BME280;1211;43.200;27.914;2023-03-31T12:10:58;100664.66;;;14.92;nan
2401;BME280;1211;43.200;27.914;2023-03-31T12:13:32;100658.13;;;14.25;nan
2401;BME280;1211;43.200;27.914;2023-03-31T12:16:03;100665.84;;;14.31;nan
2401;BME280;1211;43.200;27.914;2023-03-31T12:18:31;100657.94;;;14.46;nan
2401;BME280;1211;43.200;27.914;2023-03-31T12:21:00;100661.13;;;14.91;nan
2401;BME280;1211;43.200;27.914;2023-03-31T12:23:30;100659.59;;;14.62;nan
2401;BME280;1211;43.200;27.914;2023-03-31T12:26:00;100657.59;;;14.47;nan
2401;BME280;1211;43.200;27.914;2023-03-31T12:28:31;100653.31;;;14.65;nan
2401;BME280;1211;43.200;27.914;2023-03-31T12:30:58;100654.53;;;14.52;nan
2401;BME280;1211;43.200;27.914;2023-03-31T12:33:29;100636.94;;;14.92;nan
2401;BME280;1211;43.200;27.914;2023-03-31T12:36:02;100641.00;;;14.35;nan
2401;BME280;1211;43.200;27.914;2023-03-31T12:38:38;100638.47;;;14.73;nan
2401;BME280;1211;43.200;27.914;2023-03-31T12:41:08;100637.97;;;13.96;nan
2401;BME280;1211;43.200;27.914;2023-03-31T12:43:46;100631.53;;;13.92;nan
2401;BME280;1211;43.200;27.914;2023-03-31T12:46:28;100626.75;;;14.05;nan
2401;BME280;1211;43.200;27.914;2023-03-31T12:51:52;100617.31;;;14.22;nan
2401;BME280;1211;43.200;27.914;2023-03-31T12:54:28;100619.69;;;14.51;nan
2401;BME280;1211;43.200;27.914;2023-03-31T12:57:03;100616.63;;;14.88;nan
2401;BME280;1211;43.200;27.914;2023-03-31T12:59:31;100609.84;;;14.69;nan
2401;BME280;1211;43.200;27.914;2023-03-31T13:04:40;100610.94;;;14.49;nan
2401;BME280;1211;43.200;27.914;2023-03-31T13:07:32;100602.88;;;14.75;nan
2401;BME280;1211;43.200;27.914;2023-03-31T13:10:01;100607.13;;;15.20;nan
2401;BME280;1211;43.200;27.914;2023-03-31T13:12:54;100595.66;;;15.41;nan
2401;BME280;1211;43.200;27.914;2023-03-31T13:15:22;100592.66;;;15.49;nan
2401;BME280;1211;43.200;27.914;2023-03-31T13:17:53;100600.75;;;15.93;nan
2401;BME280;1211;43.200;27.914;2023-03-31T13:20:28;100592.44;;;15.39;nan
2401;BME280;1211;43.200;27.914;2023-03-31T13:23:00;100582.50;;;15.53;nan
2401;BME280;1211;43.200;27.914;2023-03-31T13:25:35;100576.34;;;15.83;nan
2401;BME280;1211;43.200;27.914;2023-03-31T13:28:13;100577.63;;;15.50;nan
2401;BME280;1211;43.200;27.914;2023-03-31T13:30:43;100577.50;;;14.73;nan
2401;BME280;1211;43.200;27.914;2023-03-31T13:33:10;100569.16;;;14.26;nan
2401;BME280;1211;43.200;27.914;2023-03-31T13:35:39;100561.97;;;14.10;nan
2401;BME280;1211;43.200;27.914;2023-03-31T13:38:17;100569.63;;;14.00;nan
2401;BME280;1211;43.200;27.914;2023-03-31T13:40:54;100562.13;;;14.01;nan
2401;BME280;1211;43.200;27.914;2023-03-31T13:43:27;100562.97;;;14.33;nan
2401;BME280;1211;43.200;27.914;2023-03-31T13:46:05;100560.84;;;14.42;nan
2401;BME280;1211;43.200;27.914;2023-03-31T13:48:39;100560.81;;;14.11;nan
2401;BME280;1211;43.200;27.914;2023-03-31T13:51:19;100557.41;;;14.01;nan
2401;BME280;1211;43.200;27.914;2023-03-31T13:54:04;100559.34;;;14.45;nan
2401;BME280;1211;43.200;27.914;2023-03-31T13:56:40;100550.84;;;14.53;nan
2401;BME280;1211;43.200;27.914;2023-03-31T13:59:18;100544.50;;;14.68;nan
2401;BME280;1211;43.200;27.914;2023-03-31T14:04:48;100538.22;;;15.60;nan
2401;BME280;1211;43.200;27.914;2023-03-31T14:07:19;100539.31;;;16.40;nan